createdAt,value
2018-03-01T00:00:20.056Z,21.70
2018-03-01T00:02:47.357Z,17.45
2018-03-01T00:05:14.620Z,24.95
2018-03-01T00:07:41.889Z,16.80
2018-03-01T00:10:09.173Z,20.30
2018-03-01T00:12:36.441Z,24.33
2018-03-01T00:15:03.711Z,22.75
2018-03-01T00:17:31.004Z,17.17
2018-03-01T00:19:58.292Z,24.15
2018-03-01T00:22:31.403Z,34.15
2018-03-01T00:24:58.690Z,17.50
2018-03-01T00:27:25.952Z,22.15
2018-03-01T00:29:53.250Z,13.27
2018-03-01T00:32:20.525Z,21.87
2018-03-01T00:34:47.790Z,11.85
2018-03-01T00:37:15.078Z,27.33
2018-03-01T00:39:42.342Z,13.80
2018-03-01T00:42:09.608Z,22.65
2018-03-01T00:44:36.917Z,25.42
2018-03-01T00:47:04.179Z,20.58
2018-03-01T00:49:31.466Z,23.73
2018-03-01T00:51:58.731Z,21.70
2018-03-01T00:54:26.028Z,24.37
2018-03-01T00:56:53.292Z,27.73
2018-03-01T00:59:20.602Z,24.10
2018-03-01T01:01:47.870Z,21.15
2018-03-01T01:04:15.132Z,19.20
2018-03-01T01:06:42.420Z,22.73
2018-03-01T01:09:09.689Z,17.17
2018-03-01T01:11:36.980Z,31.60
2018-03-01T01:14:04.246Z,19.85
2018-03-01T01:16:31.527Z,18.12
2018-03-01T01:18:58.821Z,23.05
2018-03-01T01:21:26.097Z,22.13
2018-03-01T01:23:53.385Z,21.25
2018-03-01T01:26:20.652Z,22.98
2018-03-01T01:28:47.921Z,20.23
2018-03-01T01:31:15.271Z,18.67
2018-03-01T01:33:42.480Z,23.77
2018-03-01T01:36:09.769Z,27.50
2018-03-01T01:38:37.041Z,24.95
2018-03-01T01:41:04.340Z,22.80
2018-03-01T01:43:31.618Z,18.77
2018-03-01T01:45:58.881Z,23.70
2018-03-01T01:48:26.205Z,25.70
2018-03-01T01:50:59.333Z,22.70
2018-03-01T01:53:26.615Z,19.58
2018-03-01T01:55:53.877Z,18.77
2018-03-01T01:58:21.184Z,22.23
2018-03-01T02:00:48.429Z,21.37
2018-03-01T02:03:15.724Z,24.58
2018-03-01T02:05:42.993Z,21.77
2018-03-01T02:08:10.288Z,19.85
2018-03-01T02:10:37.560Z,23.12
2018-03-01T02:13:04.824Z,18.92
2018-03-01T02:15:32.117Z,25.23
2018-03-01T02:17:59.389Z,21.73
2018-03-01T02:20:26.680Z,18.35
2018-03-01T02:22:53.974Z,21.05
2018-03-01T02:25:21.241Z,23.70
2018-03-01T02:27:48.515Z,21.75
2018-03-01T02:30:28.725Z,20.95
2018-03-01T02:32:55.989Z,23.80
2018-03-01T02:35:23.261Z,22.45
2018-03-01T02:37:50.568Z,26.77
2018-03-01T02:40:17.849Z,21.70
2018-03-01T02:42:45.123Z,22.60
2018-03-01T02:45:12.405Z,20.60
2018-03-01T02:47:39.668Z,25.10
2018-03-01T02:50:06.973Z,20.70
2018-03-01T02:52:34.241Z,18.50
2018-03-01T02:55:01.505Z,22.08
2018-03-01T02:57:28.980Z,21.98
2018-03-01T02:59:56.241Z,23.42
2018-03-01T03:02:23.538Z,7.43
2018-03-01T03:04:50.788Z,21.15
2018-03-01T03:07:18.073Z,18.85
2018-03-01T03:09:45.337Z,19.27
2018-03-01T03:12:12.625Z,22.08
2018-03-01T03:14:39.905Z,19.12
2018-03-01T03:17:07.175Z,22.60
2018-03-01T03:19:34.464Z,22.30
2018-03-01T03:22:01.744Z,22.95
2018-03-01T03:24:29.030Z,19.02
2018-03-01T03:26:56.293Z,22.62
2018-03-01T03:29:23.585Z,20.75
2018-03-01T03:31:50.847Z,14.55
2018-03-01T03:34:18.137Z,19.27
2018-03-01T03:36:45.413Z,20.12
2018-03-01T03:39:12.686Z,23.52
2018-03-01T03:41:39.982Z,24.73
2018-03-01T03:44:07.244Z,19.83
2018-03-01T03:46:34.535Z,20.60
2018-03-01T03:49:01.814Z,18.55
2018-03-01T03:51:29.098Z,21.40
2018-03-01T03:53:56.367Z,23.65
2018-03-01T03:56:23.665Z,24.45
2018-03-01T03:58:50.932Z,21.58
2018-03-01T04:01:18.196Z,23.98
2018-03-01T04:03:45.488Z,16.80
2018-03-01T04:06:12.753Z,23.42
2018-03-01T04:08:40.024Z,21.50
2018-03-01T04:11:07.321Z,20.30
2018-03-01T04:13:34.616Z,26.00
2018-03-01T04:16:01.888Z,24.30
2018-03-01T04:18:29.180Z,25.75
2018-03-01T04:20:56.484Z,19.12
2018-03-01T04:23:23.748Z,15.77
2018-03-01T04:25:51.053Z,18.02
2018-03-01T04:28:18.337Z,24.77
2018-03-01T04:30:45.607Z,19.87
2018-03-01T04:33:12.889Z,15.80
2018-03-01T04:35:40.177Z,14.70
2018-03-01T04:38:07.445Z,13.38
2018-03-01T04:40:34.733Z,18.37
2018-03-01T04:43:02.026Z,20.90
2018-03-01T04:45:29.290Z,19.30
2018-03-01T04:47:56.593Z,23.85
2018-03-01T04:50:23.856Z,27.37
2018-03-01T04:52:51.149Z,20.25
2018-03-01T04:55:18.416Z,20.12
2018-03-01T04:57:45.717Z,18.73
2018-03-01T05:00:13.050Z,18.42
2018-03-01T05:02:40.302Z,11.20
2018-03-01T05:05:07.584Z,19.55
2018-03-01T05:07:34.848Z,20.85
2018-03-01T05:10:02.109Z,21.30
2018-03-01T05:12:29.413Z,24.40
2018-03-01T05:14:56.680Z,23.42
2018-03-01T05:17:23.976Z,26.25
2018-03-01T05:19:51.244Z,24.20
2018-03-01T05:22:18.511Z,28.65
2018-03-01T05:24:45.799Z,28.48
2018-03-01T05:27:13.084Z,19.52
2018-03-01T05:29:40.352Z,21.25
2018-03-01T05:32:07.761Z,19.50
2018-03-01T05:34:35.027Z,20.52
2018-03-01T05:37:02.299Z,20.58
2018-03-01T05:39:29.586Z,17.35
2018-03-01T05:41:56.853Z,23.55
2018-03-01T05:44:24.125Z,25.52
2018-03-01T05:46:51.416Z,24.65
2018-03-01T05:49:18.708Z,19.55
2018-03-01T05:51:46.008Z,17.83
2018-03-01T05:54:13.272Z,24.63
2018-03-01T05:56:40.547Z,22.25
2018-03-01T05:59:07.842Z,19.27
2018-03-01T06:01:35.104Z,23.27
2018-03-01T06:04:02.399Z,25.70
2018-03-01T06:06:29.660Z,25.75
2018-03-01T06:08:56.933Z,20.98
2018-03-01T06:11:24.232Z,19.87
2018-03-01T06:13:51.519Z,22.05
2018-03-01T06:16:18.920Z,11.68
2018-03-01T06:18:46.189Z,21.60
2018-03-01T06:21:13.450Z,17.12
2018-03-01T06:23:40.753Z,19.58
2018-03-01T06:26:08.017Z,23.95
2018-03-01T06:28:35.277Z,20.62
2018-03-01T06:31:02.572Z,17.33
2018-03-01T06:33:29.877Z,20.25
2018-03-01T06:35:57.149Z,20.45
2018-03-01T06:38:24.413Z,15.07
2018-03-01T06:40:51.692Z,20.50
2018-03-01T06:43:18.961Z,20.65
2018-03-01T06:45:46.225Z,24.65
2018-03-01T06:48:13.525Z,20.73
2018-03-01T06:50:40.793Z,24.12
2018-03-01T06:53:08.080Z,19.25
2018-03-01T06:55:35.345Z,17.25
2018-03-01T06:58:02.642Z,18.48
2018-03-01T07:00:29.910Z,17.45
2018-03-01T07:02:57.193Z,16.52
2018-03-01T07:05:24.461Z,18.25
2018-03-01T07:07:51.740Z,19.77
2018-03-01T07:10:19.009Z,19.12
2018-03-01T07:12:46.287Z,22.98
2018-03-01T07:15:13.572Z,14.40
2018-03-01T07:17:40.837Z,14.95
2018-03-01T07:20:08.130Z,20.88
2018-03-01T07:22:35.454Z,27.13
2018-03-01T07:25:02.711Z,24.90
2018-03-01T07:27:30.015Z,14.77
2018-03-01T07:29:57.282Z,30.27
2018-03-01T07:32:24.548Z,9.63
2018-03-01T07:34:51.840Z,21.10
2018-03-01T07:37:19.128Z,24.90
2018-03-01T07:39:47.104Z,24.73
2018-03-01T07:42:14.392Z,21.17
2018-03-01T07:44:41.685Z,25.65
2018-03-01T07:47:08.953Z,23.80
2018-03-01T07:49:36.264Z,20.58
2018-03-01T07:52:03.520Z,23.90
2018-03-01T07:54:30.813Z,21.85
2018-03-01T07:56:58.077Z,24.85
2018-03-01T07:59:25.377Z,23.20
2018-03-01T08:01:52.645Z,19.17
2018-03-01T08:04:19.920Z,23.70
2018-03-01T08:06:47.192Z,16.87
2018-03-01T08:09:14.460Z,15.57
2018-03-01T08:11:41.726Z,20.77
2018-03-01T08:14:09.020Z,23.05
2018-03-01T08:16:36.309Z,16.27
2018-03-01T08:19:03.572Z,17.55
2018-03-01T08:21:30.864Z,15.15
2018-03-01T08:23:58.136Z,16.75
2018-03-01T08:26:25.401Z,15.80
2018-03-01T08:28:52.748Z,22.62
2018-03-01T08:31:20.033Z,17.08
2018-03-01T08:33:47.299Z,14.10
2018-03-01T08:36:14.580Z,16.33
2018-03-01T08:38:41.841Z,10.90
2018-03-01T08:41:09.135Z,16.42
2018-03-01T08:43:36.404Z,22.42
2018-03-01T08:46:03.670Z,17.83
2018-03-01T08:48:30.970Z,12.32
2018-03-01T08:50:58.232Z,13.65
2018-03-01T08:53:25.509Z,18.05
2018-03-01T08:55:52.810Z,15.02
2018-03-01T08:58:20.070Z,18.25
2018-03-01T09:00:47.334Z,16.85
2018-03-01T09:03:14.624Z,16.85
2018-03-01T09:05:41.886Z,16.50
2018-03-01T09:08:09.184Z,19.42
2018-03-01T09:10:36.520Z,20.88
2018-03-01T09:13:03.809Z,17.52
2018-03-01T09:15:31.078Z,13.05
2018-03-01T09:17:58.372Z,12.13
2018-03-01T09:20:25.685Z,17.08
2018-03-01T09:22:52.956Z,13.70
2018-03-01T09:25:20.252Z,12.07
2018-03-01T09:27:47.518Z,15.85
2018-03-01T09:30:14.782Z,17.70
2018-03-01T09:32:42.075Z,18.40
2018-03-01T09:35:09.344Z,14.87
2018-03-01T09:37:36.640Z,17.58
2018-03-01T09:40:03.941Z,16.55
2018-03-01T09:42:31.209Z,10.88
2018-03-01T09:44:58.477Z,16.00
2018-03-01T09:47:25.764Z,30.17
2018-03-01T09:49:53.068Z,19.12
2018-03-01T09:52:20.337Z,16.65
2018-03-01T09:54:47.884Z,14.50
2018-03-01T09:57:15.173Z,14.10
2018-03-01T09:59:42.446Z,20.02
2018-03-01T10:02:09.719Z,19.42
2018-03-01T10:04:37.004Z,15.48
2018-03-01T10:07:04.304Z,18.42
2018-03-01T10:09:31.568Z,13.57
2018-03-01T10:11:58.839Z,15.10
2018-03-01T10:14:26.130Z,17.97
2018-03-01T10:16:53.685Z,14.03
2018-03-01T10:19:20.963Z,15.38
2018-03-01T10:21:48.221Z,15.00
2018-03-01T10:24:15.504Z,12.57
2018-03-01T10:26:42.768Z,19.07
2018-03-01T10:29:10.042Z,17.10
2018-03-01T10:31:37.326Z,24.57
2018-03-01T10:34:04.592Z,18.23
2018-03-01T10:36:31.877Z,15.33
2018-03-01T10:38:59.157Z,19.63
2018-03-01T10:41:26.454Z,19.70
2018-03-01T10:43:53.737Z,19.87
2018-03-01T10:46:20.997Z,20.97
2018-03-01T10:48:49.345Z,14.80
2018-03-01T10:51:16.875Z,19.50
2018-03-01T10:53:44.136Z,12.30
2018-03-01T10:56:11.431Z,18.77
2018-03-01T10:58:38.713Z,16.07
2018-03-01T11:01:05.969Z,14.67
2018-03-01T11:03:33.259Z,21.70
2018-03-01T11:06:00.522Z,14.80
2018-03-01T11:08:27.817Z,17.50
2018-03-01T11:10:55.102Z,16.17
2018-03-01T11:13:22.356Z,10.47
2018-03-01T11:15:49.645Z,19.23
2018-03-01T11:18:16.913Z,16.43
2018-03-01T11:20:44.205Z,13.70
2018-03-01T11:23:11.483Z,16.30
2018-03-01T11:25:38.761Z,16.60
2018-03-01T11:28:06.028Z,16.73
2018-03-01T11:30:33.297Z,16.90
2018-03-01T11:33:00.581Z,21.07
2018-03-01T11:35:27.852Z,17.57
2018-03-01T11:37:55.107Z,19.23
2018-03-01T11:40:22.393Z,10.70
2018-03-01T11:42:49.654Z,12.63
2018-03-01T11:45:17.014Z,20.70
2018-03-01T11:47:44.261Z,18.50
2018-03-01T11:50:11.551Z,18.40
2018-03-01T11:52:38.848Z,18.03
2018-03-01T11:55:06.149Z,15.80
2018-03-01T11:57:33.407Z,11.60
2018-03-01T12:00:00.677Z,13.47
2018-03-01T12:02:27.956Z,17.10
2018-03-01T12:04:55.219Z,16.47
2018-03-01T12:07:22.495Z,22.60
2018-03-01T12:09:49.754Z,16.00
2018-03-01T12:12:17.015Z,16.20
2018-03-01T12:14:44.301Z,14.70
2018-03-01T12:17:11.599Z,15.50
2018-03-01T12:19:38.851Z,16.97
2018-03-01T12:22:06.178Z,17.80
2018-03-01T12:24:33.418Z,17.53
2018-03-01T12:27:00.680Z,15.10
2018-03-01T12:29:27.970Z,13.17
2018-03-01T12:31:55.242Z,15.47
2018-03-01T12:34:22.501Z,15.80
2018-03-01T12:36:49.859Z,18.50
2018-03-01T12:39:17.174Z,17.47
2018-03-01T12:41:44.476Z,13.30
2018-03-01T12:44:11.811Z,16.20
2018-03-01T12:46:39.089Z,16.93
2018-03-01T12:49:06.386Z,17.90
2018-03-01T12:51:33.673Z,9.70
2018-03-01T12:54:01.242Z,20.13
2018-03-01T12:56:28.827Z,15.60
2018-03-01T12:58:56.145Z,17.93
2018-03-01T13:01:23.578Z,14.33
2018-03-01T13:03:50.985Z,15.47
2018-03-01T13:06:18.269Z,19.77
2018-03-01T13:08:45.537Z,17.60
2018-03-01T13:11:12.825Z,27.20
2018-03-01T13:13:40.100Z,27.70
2018-03-01T13:16:07.358Z,25.43
2018-03-01T13:18:34.655Z,22.23
2018-03-01T13:21:01.914Z,20.17
2018-03-01T13:23:29.202Z,18.67
2018-03-01T13:25:56.461Z,25.57
2018-03-01T13:28:23.760Z,17.07
2018-03-01T13:30:53.569Z,17.60
2018-03-01T13:33:21.181Z,15.13
2018-03-01T13:35:58.344Z,20.83
2018-03-01T13:38:25.629Z,15.03
2018-03-01T13:40:52.933Z,20.70
2018-03-01T13:43:20.231Z,18.13
2018-03-01T13:45:47.514Z,14.93
2018-03-01T13:48:14.780Z,14.40
2018-03-01T13:50:42.050Z,18.50
2018-03-01T13:53:09.336Z,16.27
2018-03-01T13:55:36.599Z,16.63
2018-03-01T13:58:03.885Z,15.93
2018-03-01T14:00:31.179Z,16.63
2018-03-01T14:02:58.468Z,18.97
2018-03-01T14:05:25.762Z,16.20
2018-03-01T14:07:56.973Z,16.17
2018-03-01T14:10:24.256Z,15.73
2018-03-01T14:12:54.193Z,27.67
2018-03-01T14:15:21.461Z,24.97
2018-03-01T14:17:50.669Z,17.80
2018-03-01T14:20:23.628Z,16.93
2018-03-01T14:22:56.639Z,16.43
2018-03-01T14:25:24.422Z,21.43
2018-03-01T14:27:57.462Z,19.07
2018-03-01T14:30:24.761Z,16.00
2018-03-01T14:32:52.017Z,17.77
2018-03-01T14:35:19.317Z,17.37
2018-03-01T14:37:46.609Z,17.70
2018-03-01T14:40:13.865Z,15.73
2018-03-01T14:42:41.177Z,18.27
2018-03-01T14:45:08.445Z,17.57
2018-03-01T14:47:35.708Z,18.00
2018-03-01T14:50:02.996Z,17.60
2018-03-01T14:52:30.255Z,22.57
2018-03-01T14:54:57.544Z,15.03
2018-03-01T14:57:24.800Z,15.80
2018-03-01T14:59:52.097Z,16.97
2018-03-01T15:02:19.366Z,22.13
2018-03-01T15:04:46.714Z,15.13
2018-03-01T15:07:13.955Z,17.37
2018-03-01T15:09:41.219Z,20.93
2018-03-01T15:12:08.513Z,18.43
2018-03-01T15:14:35.797Z,30.23
2018-03-01T15:17:03.089Z,18.40
2018-03-01T15:19:30.357Z,20.80
2018-03-01T15:21:57.646Z,16.70
2018-03-01T15:24:24.905Z,14.70
2018-03-01T15:26:52.208Z,20.93
2018-03-01T15:29:19.500Z,20.47
2018-03-01T15:31:46.798Z,17.10
2018-03-01T15:34:14.064Z,17.80
2018-03-01T15:36:41.362Z,15.97
2018-03-01T15:39:08.625Z,15.50
2018-03-01T15:41:35.954Z,20.93
2018-03-01T15:44:03.237Z,19.43
2018-03-01T15:46:30.503Z,17.60
2018-03-01T15:48:57.795Z,16.50
2018-03-01T15:51:25.054Z,17.40
2018-03-01T15:53:52.340Z,18.67
2018-03-01T15:56:19.608Z,22.77
2018-03-01T15:58:46.949Z,16.10
2018-03-01T16:01:14.177Z,19.73
2018-03-01T16:03:41.481Z,18.07
2018-03-01T16:06:08.774Z,18.20
2018-03-01T16:08:36.102Z,26.00
2018-03-01T16:11:03.389Z,19.50
2018-03-01T16:13:30.668Z,15.37
2018-03-01T16:15:57.922Z,19.03
2018-03-01T16:18:25.206Z,19.03
2018-03-01T16:20:52.761Z,21.17
2018-03-01T16:23:20.057Z,21.57
2018-03-01T16:25:47.352Z,17.57
2018-03-01T16:28:14.629Z,19.93
2018-03-01T16:30:47.805Z,33.20
2018-03-01T16:33:15.107Z,84.87
2018-03-01T16:35:42.386Z,37.37
2018-03-01T16:38:09.678Z,32.20
2018-03-01T16:40:36.948Z,73.27
2018-03-01T16:43:04.446Z,82.77
2018-03-01T16:45:31.761Z,33.70
2018-03-01T16:47:59.073Z,30.23
2018-03-01T16:50:26.346Z,29.23
2018-03-01T16:52:53.623Z,30.40
2018-03-01T16:55:20.897Z,38.50
2018-03-01T16:57:49.042Z,46.33
2018-03-01T17:00:16.335Z,42.63
2018-03-01T17:02:43.627Z,26.80
2018-03-01T17:05:10.897Z,44.80
2018-03-01T17:07:38.186Z,17.20
2018-03-01T17:10:05.480Z,40.93
2018-03-01T17:12:32.749Z,31.97
2018-03-01T17:15:00.058Z,42.63
2018-03-01T17:17:27.320Z,27.77
2018-03-01T17:19:54.615Z,23.83
2018-03-01T17:22:21.878Z,34.90
2018-03-01T17:24:49.178Z,18.47
2018-03-01T17:27:16.446Z,38.17
2018-03-01T17:29:43.736Z,27.60
2018-03-01T17:32:11.017Z,24.67
2018-03-01T17:34:38.308Z,35.03
2018-03-01T17:37:05.602Z,34.60
2018-03-01T17:39:32.869Z,37.10
2018-03-01T17:42:00.162Z,47.87
2018-03-01T17:44:27.428Z,39.20
2018-03-01T17:46:54.728Z,25.37
2018-03-01T17:49:22.012Z,30.50
2018-03-01T17:51:49.272Z,72.30
2018-03-01T17:54:16.568Z,47.60
2018-03-01T17:56:43.829Z,30.33
2018-03-01T17:59:11.132Z,33.67
2018-03-01T18:01:38.396Z,21.87
2018-03-01T18:04:05.683Z,27.30
2018-03-01T18:06:32.972Z,22.03
2018-03-01T18:09:00.268Z,22.00
2018-03-01T18:11:27.537Z,22.00
2018-03-01T18:13:54.829Z,23.27
2018-03-01T18:16:22.105Z,22.00
2018-03-01T18:18:49.409Z,22.97
2018-03-01T18:21:16.678Z,19.27
2018-03-01T18:23:43.940Z,23.33
2018-03-01T18:26:11.229Z,21.50
2018-03-01T18:28:38.559Z,19.13
2018-03-01T18:31:05.802Z,20.30
2018-03-01T18:33:33.070Z,19.00
2018-03-01T18:36:00.358Z,24.23
2018-03-01T18:38:27.629Z,23.37
2018-03-01T18:40:54.920Z,21.57
2018-03-01T18:43:22.189Z,21.47
2018-03-01T18:45:49.497Z,22.70
2018-03-01T18:48:16.770Z,27.60
2018-03-01T18:50:44.037Z,27.60
2018-03-01T18:53:11.346Z,20.80
2018-03-01T18:55:38.608Z,25.30
2018-03-01T18:58:05.878Z,26.70
2018-03-01T19:00:33.293Z,23.45
2018-03-01T19:03:00.565Z,27.57
2018-03-01T19:05:27.853Z,25.20
2018-03-01T19:07:55.153Z,24.70
2018-03-01T19:10:22.422Z,31.17
2018-03-01T19:12:49.709Z,22.63
2018-03-01T19:15:16.987Z,25.03
2018-03-01T19:17:44.264Z,25.40
2018-03-01T19:20:11.652Z,28.80
2018-03-01T19:22:39.010Z,22.00
2018-03-01T19:25:06.308Z,22.07
2018-03-01T19:27:33.572Z,21.20
2018-03-01T19:30:00.868Z,25.57
2018-03-01T19:32:28.136Z,23.50
2018-03-01T19:34:55.433Z,31.00
2018-03-01T19:37:23.314Z,34.70
2018-03-01T19:39:50.559Z,30.50
2018-03-01T19:42:17.849Z,32.03
2018-03-01T19:44:45.117Z,27.23
2018-03-01T19:47:12.389Z,27.23
2018-03-01T19:49:39.681Z,25.63
2018-03-01T19:52:06.996Z,33.40
2018-03-01T19:54:34.252Z,35.40
2018-03-01T19:57:01.533Z,38.80
2018-03-01T19:59:29.087Z,24.60
2018-03-01T20:01:56.345Z,27.10
2018-03-01T20:04:23.609Z,32.80
2018-03-01T20:06:50.904Z,26.73
2018-03-01T20:09:18.181Z,33.77
2018-03-01T20:11:45.473Z,29.40
2018-03-01T20:14:12.766Z,32.57
2018-03-01T20:16:40.038Z,29.20
2018-03-01T20:19:07.327Z,34.53
2018-03-01T20:21:34.614Z,28.20
2018-03-01T20:24:01.903Z,29.67
2018-03-01T20:26:29.177Z,32.33
2018-03-01T20:28:56.472Z,29.73
2018-03-01T20:31:23.744Z,29.53
2018-03-01T20:33:51.045Z,30.50
2018-03-01T20:36:18.321Z,63.37
2018-03-01T20:38:45.580Z,39.87
2018-03-01T20:41:12.877Z,29.20
2018-03-01T20:43:40.141Z,25.37
2018-03-01T20:46:07.436Z,26.83
2018-03-01T20:48:34.704Z,30.90
2018-03-01T20:51:02.022Z,34.13
2018-03-01T20:53:29.277Z,33.63
2018-03-01T20:55:56.541Z,34.17
2018-03-01T20:58:23.832Z,26.87
2018-03-01T21:00:51.098Z,33.50
2018-03-01T21:03:18.392Z,30.07
2018-03-01T21:05:45.661Z,31.60
2018-03-01T21:08:12.973Z,36.57
2018-03-01T21:10:40.245Z,26.07
2018-03-01T21:13:07.505Z,28.97
2018-03-01T21:15:34.800Z,36.70
2018-03-01T21:18:02.097Z,34.37
2018-03-01T21:20:29.393Z,34.73
2018-03-01T21:22:56.650Z,31.40
2018-03-01T21:25:23.942Z,30.47
2018-03-01T21:27:51.205Z,40.20
2018-03-01T21:30:18.501Z,29.50
2018-03-01T21:32:45.781Z,32.77
2018-03-01T21:35:13.072Z,37.13
2018-03-01T21:37:40.323Z,35.23
2018-03-01T21:40:07.618Z,32.53
2018-03-01T21:42:34.889Z,38.60
2018-03-01T21:45:02.187Z,34.60
2018-03-01T21:47:29.468Z,31.77
2018-03-01T21:49:56.739Z,38.50
2018-03-01T21:52:24.033Z,33.53
2018-03-01T21:54:51.298Z,39.33
2018-03-01T21:57:18.593Z,41.47
2018-03-01T21:59:45.882Z,35.00
2018-03-01T22:02:13.170Z,37.07
2018-03-01T22:04:40.464Z,32.97
2018-03-01T22:07:07.718Z,35.20
2018-03-01T22:09:35.021Z,37.70
2018-03-01T22:12:02.301Z,33.77
2018-03-01T22:14:29.601Z,32.83
2018-03-01T22:16:56.891Z,35.93
2018-03-01T22:19:24.162Z,38.17
2018-03-01T22:21:51.417Z,35.03
2018-03-01T22:24:18.716Z,35.67
2018-03-01T22:26:45.980Z,42.23
2018-03-01T22:29:13.254Z,43.20
2018-03-01T22:31:40.544Z,47.30
2018-03-01T22:34:07.820Z,44.43
2018-03-01T22:36:35.116Z,40.13
2018-03-01T22:39:02.380Z,37.00
2018-03-01T22:41:29.650Z,42.83
2018-03-01T22:43:56.941Z,46.93
2018-03-01T22:46:24.209Z,46.27
2018-03-01T22:48:51.500Z,48.80
2018-03-01T22:51:18.769Z,42.10
2018-03-01T22:53:46.061Z,40.43
2018-03-01T22:56:13.376Z,37.10
2018-03-01T22:58:40.625Z,35.40
2018-03-01T23:01:07.885Z,39.37
2018-03-01T23:03:35.188Z,44.53
2018-03-01T23:06:02.461Z,36.77
2018-03-01T23:08:29.729Z,41.77
2018-03-01T23:10:57.018Z,40.87
2018-03-01T23:13:24.281Z,38.47
2018-03-01T23:15:51.545Z,50.87
2018-03-01T23:18:18.834Z,45.43
2018-03-01T23:20:46.117Z,44.90
2018-03-01T23:23:13.408Z,38.03
2018-03-01T23:25:40.674Z,41.17
2018-03-01T23:28:07.971Z,37.47
2018-03-01T23:30:35.240Z,40.40
2018-03-01T23:33:02.506Z,40.63
2018-03-01T23:35:29.788Z,37.57
2018-03-01T23:37:57.060Z,35.93
2018-03-01T23:40:24.345Z,40.00
2018-03-01T23:42:51.625Z,39.93
2018-03-01T23:45:18.876Z,38.93
2018-03-01T23:47:46.175Z,42.83
2018-03-01T23:50:13.440Z,38.43
2018-03-01T23:52:40.728Z,33.37
2018-03-01T23:55:07.988Z,43.20
2018-03-01T23:57:35.285Z,38.80
